createdAt,value
2022-09-26T00:00:31.799Z,10.90
2022-09-26T00:01:31.882Z,9.70
2022-09-26T00:02:31.801Z,8.20
2022-09-26T00:03:31.786Z,9.20
2022-09-26T00:04:33.017Z,6.80
2022-09-26T00:05:32.764Z,7.00
2022-09-26T00:06:31.771Z,7.20
2022-09-26T00:07:31.804Z,5.50
2022-09-26T00:08:31.764Z,8.30
2022-09-26T00:09:31.743Z,9.00
2022-09-26T00:10:31.754Z,6.90
2022-09-26T00:11:31.744Z,7.70
2022-09-26T00:12:31.745Z,7.30
2022-09-26T00:13:31.724Z,8.80
2022-09-26T00:14:31.698Z,11.10
2022-09-26T00:15:31.726Z,6.30
2022-09-26T00:16:31.758Z,9.00
2022-09-26T00:17:31.709Z,8.60
2022-09-26T00:18:31.682Z,6.90
2022-09-26T00:19:31.671Z,8.80
2022-09-26T00:20:31.689Z,6.40
2022-09-26T00:21:31.655Z,8.60
2022-09-26T00:22:31.659Z,8.50
2022-09-26T00:23:31.658Z,7.60
2022-09-26T00:24:31.648Z,10.60
2022-09-26T00:25:31.657Z,8.20
2022-09-26T00:26:31.647Z,6.60
2022-09-26T00:27:31.637Z,8.60
2022-09-26T00:28:31.668Z,6.10
2022-09-26T00:29:32.469Z,8.60
2022-09-26T00:30:31.672Z,7.30
2022-09-26T00:31:31.613Z,5.50
2022-09-26T00:32:31.601Z,5.80
2022-09-26T00:33:31.605Z,8.70
2022-09-26T00:34:31.649Z,7.00
2022-09-26T00:35:31.577Z,7.50
2022-09-26T00:36:38.023Z,9.00
2022-09-26T00:37:33.557Z,7.10
2022-09-26T00:38:31.560Z,4.90
2022-09-26T00:39:31.773Z,8.00
2022-09-26T00:40:31.625Z,6.50
2022-09-26T00:41:31.544Z,6.10
2022-09-26T00:42:31.545Z,9.10
2022-09-26T00:43:31.539Z,6.60
2022-09-26T00:44:31.552Z,11.10
2022-09-26T00:45:31.578Z,7.00
2022-09-26T00:46:31.688Z,8.80
2022-09-26T00:47:31.504Z,8.50
2022-09-26T00:48:31.509Z,5.80
2022-09-26T00:49:31.546Z,6.40
2022-09-26T00:50:31.545Z,8.30
2022-09-26T00:51:31.492Z,5.30
2022-09-26T00:52:31.482Z,7.20
2022-09-26T00:53:31.470Z,5.30
2022-09-26T00:54:31.463Z,5.70
2022-09-26T00:55:31.477Z,8.90
2022-09-26T00:56:31.454Z,7.30
2022-09-26T00:57:31.441Z,6.50
2022-09-26T00:58:31.433Z,8.00
2022-09-26T00:59:31.441Z,7.40
2022-09-26T01:00:31.454Z,7.90
2022-09-26T01:01:31.541Z,11.70
2022-09-26T01:02:31.538Z,7.40
2022-09-26T01:03:32.435Z,7.90
2022-09-26T01:04:31.409Z,6.40
2022-09-26T01:05:31.394Z,7.50
2022-09-26T01:06:31.406Z,8.70
2022-09-26T01:07:31.392Z,7.60
2022-09-26T01:08:31.363Z,7.40
2022-09-26T01:09:31.373Z,6.20
2022-09-26T01:10:31.358Z,6.50
2022-09-26T01:11:31.375Z,9.90
2022-09-26T01:12:31.383Z,7.10
2022-09-26T01:13:31.374Z,6.80
2022-09-26T01:14:31.341Z,7.40
2022-09-26T01:15:31.370Z,8.30
2022-09-26T01:16:31.406Z,8.20
2022-09-26T01:17:31.331Z,6.80
2022-09-26T01:18:31.322Z,6.70
2022-09-26T01:19:31.312Z,6.70
2022-09-26T01:20:31.315Z,5.90
2022-09-26T01:21:31.312Z,6.90
2022-09-26T01:22:31.284Z,5.70
2022-09-26T01:23:31.287Z,6.40
2022-09-26T01:24:31.281Z,9.90
2022-09-26T01:25:31.279Z,6.60
2022-09-26T01:26:31.263Z,6.40
2022-09-26T01:27:31.264Z,6.50
2022-09-26T01:28:31.279Z,9.20
2022-09-26T01:29:31.256Z,8.80
2022-09-26T01:30:31.283Z,7.50
2022-09-26T01:31:31.239Z,6.10
2022-09-26T01:32:31.266Z,6.50
2022-09-26T01:33:31.240Z,7.30
2022-09-26T01:34:31.203Z,7.70
2022-09-26T01:35:32.232Z,8.50
2022-09-26T01:36:31.220Z,7.70
2022-09-26T01:37:31.214Z,7.60
2022-09-26T01:38:31.201Z,6.20
2022-09-26T01:39:31.207Z,8.00
2022-09-26T01:40:31.289Z,8.10
2022-09-26T01:41:31.194Z,9.80
2022-09-26T01:42:31.209Z,10.10
2022-09-26T01:43:31.171Z,9.10
2022-09-26T01:44:31.155Z,7.90
2022-09-26T01:45:31.234Z,9.70
2022-09-26T01:46:31.140Z,7.90
2022-09-26T01:47:31.141Z,5.70
2022-09-26T01:48:31.167Z,8.50
2022-09-26T01:49:31.134Z,8.50
2022-09-26T01:50:31.139Z,8.00
2022-09-26T01:51:31.152Z,9.00
2022-09-26T01:52:31.112Z,5.60
2022-09-26T01:53:31.107Z,5.70
2022-09-26T01:54:31.096Z,5.90
2022-09-26T01:55:31.120Z,7.30
2022-09-26T01:56:31.119Z,8.00
2022-09-26T01:57:31.067Z,8.10
2022-09-26T01:58:31.063Z,13.60
2022-09-26T01:59:31.087Z,7.90
2022-09-26T02:00:31.081Z,6.40
2022-09-26T02:01:31.164Z,7.10
2022-09-26T02:02:31.133Z,7.30
2022-09-26T02:03:31.048Z,9.60
2022-09-26T02:04:31.039Z,7.40
2022-09-26T02:05:31.018Z,8.20
2022-09-26T02:06:31.052Z,8.90
2022-09-26T02:07:31.019Z,9.80
2022-09-26T02:08:31.015Z,7.80
2022-09-26T02:09:30.995Z,10.70
2022-09-26T02:10:31.010Z,9.80
2022-09-26T02:11:30.995Z,8.80
2022-09-26T02:12:31.040Z,7.00
2022-09-26T02:13:30.972Z,7.10
2022-09-26T02:14:30.963Z,10.40
2022-09-26T02:15:30.963Z,8.40
2022-09-26T02:16:31.041Z,7.60
2022-09-26T02:17:30.958Z,10.80
2022-09-26T02:18:30.958Z,12.60
2022-09-26T02:19:30.930Z,8.40
2022-09-26T02:20:30.923Z,9.10
2022-09-26T02:21:30.950Z,7.90
2022-09-26T02:22:30.923Z,8.30
2022-09-26T02:23:30.972Z,11.40
2022-09-26T02:24:30.902Z,8.80
2022-09-26T02:25:30.883Z,7.90
2022-09-26T02:26:30.910Z,6.90
2022-09-26T02:27:30.884Z,7.90
2022-09-26T02:28:30.903Z,7.80
2022-09-26T02:29:30.872Z,7.70
2022-09-26T02:30:30.863Z,8.30
2022-09-26T02:31:30.899Z,7.30
2022-09-26T02:32:30.866Z,6.80
2022-09-26T02:33:30.850Z,8.20
2022-09-26T02:34:30.839Z,6.70
2022-09-26T02:35:30.849Z,6.10
2022-09-26T02:36:30.937Z,8.60
2022-09-26T02:37:30.827Z,6.30
2022-09-26T02:38:30.849Z,6.80
2022-09-26T02:39:30.812Z,7.00
2022-09-26T02:40:30.874Z,7.10
2022-09-26T02:41:30.821Z,6.90
2022-09-26T02:42:30.816Z,9.30
2022-09-26T02:43:30.785Z,10.10
2022-09-26T02:44:30.799Z,6.80
2022-09-26T02:45:30.814Z,7.40
2022-09-26T02:46:30.773Z,5.60
2022-09-26T02:47:30.752Z,11.60
2022-09-26T02:48:30.783Z,7.10
2022-09-26T02:49:30.756Z,7.30
2022-09-26T02:50:32.908Z,7.80
2022-09-26T02:51:30.743Z,7.40
2022-09-26T02:52:30.736Z,7.60
2022-09-26T02:53:30.777Z,6.50
2022-09-26T02:54:30.708Z,6.20
2022-09-26T02:55:30.718Z,8.50
2022-09-26T02:56:30.695Z,6.60
2022-09-26T02:57:30.695Z,7.90
2022-09-26T02:58:30.705Z,7.00
2022-09-26T02:59:30.683Z,6.60
2022-09-26T03:00:30.679Z,6.90
2022-09-26T03:01:30.684Z,9.20
2022-09-26T03:02:31.447Z,7.10
2022-09-26T03:03:30.729Z,6.50
2022-09-26T03:04:30.730Z,7.00
2022-09-26T03:05:30.655Z,8.70
2022-09-26T03:06:30.659Z,7.70
2022-09-26T03:07:30.637Z,7.50
2022-09-26T03:08:30.668Z,9.00
2022-09-26T03:09:30.624Z,7.00
2022-09-26T03:10:30.626Z,9.10
2022-09-26T03:11:30.618Z,6.70
2022-09-26T03:12:30.602Z,7.20
2022-09-26T03:13:30.614Z,5.80
2022-09-26T03:14:30.606Z,5.60
2022-09-26T03:15:30.623Z,6.70
2022-09-26T03:16:30.659Z,7.30
2022-09-26T03:17:30.567Z,6.00
2022-09-26T03:18:30.584Z,7.30
2022-09-26T03:19:30.567Z,6.30
2022-09-26T03:20:30.558Z,8.60
2022-09-26T03:21:34.867Z,4.70
2022-09-26T03:22:31.602Z,7.10
2022-09-26T03:23:30.563Z,7.40
2022-09-26T03:24:30.585Z,7.90
2022-09-26T03:25:30.517Z,12.10
2022-09-26T03:26:30.522Z,6.60
2022-09-26T03:27:30.502Z,6.70
2022-09-26T03:28:35.324Z,8.00
2022-09-26T03:29:32.506Z,7.30
2022-09-26T03:30:30.490Z,6.50
2022-09-26T03:31:31.661Z,7.10
2022-09-26T03:32:30.512Z,7.30
2022-09-26T03:33:30.481Z,6.90
2022-09-26T03:34:30.484Z,6.70
2022-09-26T03:35:30.458Z,7.40
2022-09-26T03:36:30.456Z,5.90
2022-09-26T03:37:30.439Z,7.20
2022-09-26T03:38:30.449Z,6.40
2022-09-26T03:39:30.442Z,5.70
2022-09-26T03:40:31.507Z,6.60
2022-09-26T03:41:30.422Z,7.80
2022-09-26T03:42:30.410Z,5.60
2022-09-26T03:43:30.407Z,8.60
2022-09-26T03:44:30.447Z,8.00
2022-09-26T03:45:30.453Z,7.30
2022-09-26T03:46:30.467Z,6.90
2022-09-26T03:47:30.394Z,6.90
2022-09-26T03:48:30.407Z,6.50
2022-09-26T03:49:30.421Z,6.20
2022-09-26T03:50:30.391Z,6.10
2022-09-26T03:51:30.369Z,9.00
2022-09-26T03:52:30.363Z,8.10
2022-09-26T03:53:30.364Z,7.00
2022-09-26T03:54:30.360Z,7.90
2022-09-26T03:55:30.344Z,5.90
2022-09-26T03:56:30.323Z,7.50
2022-09-26T03:57:30.321Z,7.40
2022-09-26T03:58:30.317Z,6.80
2022-09-26T03:59:30.312Z,7.70
2022-09-26T04:00:30.337Z,7.50
2022-09-26T04:01:30.354Z,7.50
2022-09-26T04:02:30.418Z,10.10
2022-09-26T04:03:30.287Z,8.70
2022-09-26T04:04:30.269Z,8.70
2022-09-26T04:05:30.288Z,5.70
2022-09-26T04:06:30.279Z,8.40
2022-09-26T04:07:30.275Z,10.10
2022-09-26T04:08:30.262Z,7.70
2022-09-26T04:09:30.249Z,7.60
2022-09-26T04:10:30.276Z,7.30
2022-09-26T04:11:30.255Z,7.90
2022-09-26T04:12:30.279Z,8.00
2022-09-26T04:13:53.837Z,7.70
2022-09-26T04:14:32.231Z,7.60
2022-09-26T04:15:30.227Z,7.70
2022-09-26T04:16:30.356Z,7.10
2022-09-26T04:17:30.220Z,9.20
2022-09-26T04:18:30.200Z,8.70
2022-09-26T04:19:30.197Z,9.10
2022-09-26T04:20:30.208Z,9.30
2022-09-26T04:21:30.182Z,7.90
2022-09-26T04:22:30.173Z,6.50
2022-09-26T04:23:30.162Z,6.20
2022-09-26T04:24:30.221Z,8.30
2022-09-26T04:25:30.347Z,8.90
2022-09-26T04:26:30.162Z,7.10
2022-09-26T04:27:30.144Z,9.40
2022-09-26T04:28:30.138Z,7.90
2022-09-26T04:29:30.116Z,10.70
2022-09-26T04:30:30.131Z,5.60
2022-09-26T04:31:30.234Z,7.90
2022-09-26T04:32:30.123Z,8.80
2022-09-26T04:33:30.102Z,8.20
2022-09-26T04:34:30.091Z,7.90
2022-09-26T04:35:30.091Z,7.60
2022-09-26T04:36:30.109Z,10.30
2022-09-26T04:37:30.090Z,6.90
2022-09-26T04:38:30.095Z,8.00
2022-09-26T04:39:30.054Z,9.50
2022-09-26T04:40:30.113Z,10.10
2022-09-26T04:41:30.096Z,6.90
2022-09-26T04:42:30.073Z,5.90
2022-09-26T04:43:30.053Z,10.40
2022-09-26T04:44:30.168Z,8.40
2022-09-26T04:45:30.109Z,6.70
2022-09-26T04:46:31.197Z,6.10
2022-09-26T04:47:31.040Z,9.00
2022-09-26T04:48:30.013Z,6.70
2022-09-26T04:49:30.967Z,6.80
2022-09-26T04:50:30.018Z,5.80
2022-09-26T04:51:30.987Z,6.20
2022-09-26T04:52:30.070Z,8.10
2022-09-26T04:53:30.027Z,6.20
2022-09-26T04:54:30.964Z,8.20
2022-09-26T04:55:29.960Z,6.20
2022-09-26T04:56:30.102Z,7.60
2022-09-26T04:57:29.969Z,6.30
2022-09-26T04:58:29.973Z,6.70
2022-09-26T04:59:29.946Z,7.60
2022-09-26T05:00:29.985Z,9.10
2022-09-26T05:01:31.084Z,7.40
2022-09-26T05:02:30.516Z,7.40
2022-09-26T05:03:30.944Z,7.00
2022-09-26T05:04:29.919Z,8.10
2022-09-26T05:05:29.920Z,10.30
2022-09-26T05:06:29.963Z,8.90
2022-09-26T05:07:29.942Z,7.30
2022-09-26T05:08:29.899Z,9.10
2022-09-26T05:09:34.186Z,10.80
2022-09-26T05:10:31.888Z,8.50
2022-09-26T05:11:29.872Z,12.00
2022-09-26T05:12:29.858Z,9.40
2022-09-26T05:13:29.896Z,8.00
2022-09-26T05:14:29.857Z,9.70
2022-09-26T05:15:29.851Z,8.40
2022-09-26T05:16:29.877Z,9.90
2022-09-26T05:17:29.844Z,11.00
2022-09-26T05:18:29.830Z,8.20
2022-09-26T05:19:29.840Z,7.90
2022-09-26T05:20:29.835Z,9.70
2022-09-26T05:21:29.800Z,10.10
2022-09-26T05:22:29.802Z,9.70
2022-09-26T05:23:29.831Z,9.80
2022-09-26T05:24:29.795Z,11.00
2022-09-26T05:25:29.818Z,11.90
2022-09-26T05:26:29.782Z,8.60
2022-09-26T05:27:29.855Z,9.60
2022-09-26T05:28:29.772Z,13.30
2022-09-26T05:29:30.771Z,12.40
2022-09-26T05:30:29.757Z,12.80
2022-09-26T05:31:29.794Z,11.50
2022-09-26T05:32:29.784Z,12.70
2022-09-26T05:33:29.759Z,13.20
2022-09-26T05:34:29.768Z,10.80
2022-09-26T05:35:29.731Z,11.70
2022-09-26T05:36:29.722Z,11.40
2022-09-26T05:37:30.716Z,11.10
2022-09-26T05:38:29.704Z,13.10
2022-09-26T05:39:29.722Z,12.30
2022-09-26T05:40:29.708Z,11.80
2022-09-26T05:41:29.691Z,12.40
2022-09-26T05:42:29.707Z,13.10
2022-09-26T05:43:29.671Z,12.80
2022-09-26T05:44:29.690Z,17.20
2022-09-26T05:45:29.654Z,12.60
2022-09-26T05:46:29.720Z,12.80
2022-09-26T05:47:29.651Z,12.00
2022-09-26T05:48:29.634Z,13.70
2022-09-26T05:49:29.695Z,12.40
2022-09-26T05:50:29.627Z,11.90
2022-09-26T05:51:29.681Z,12.90
2022-09-26T05:52:29.618Z,13.70
2022-09-26T05:53:29.629Z,12.20
2022-09-26T05:54:29.641Z,13.60
2022-09-26T05:55:29.603Z,12.00
2022-09-26T05:56:29.597Z,13.50
2022-09-26T05:57:29.601Z,11.80
2022-09-26T05:58:29.587Z,13.40
2022-09-26T05:59:29.589Z,13.70
2022-09-26T06:00:29.635Z,11.50
2022-09-26T06:01:29.626Z,15.50
2022-09-26T06:02:29.617Z,12.00
2022-09-26T06:03:29.602Z,14.10
2022-09-26T06:04:29.647Z,15.60
2022-09-26T06:05:29.558Z,14.60
2022-09-26T06:06:29.533Z,17.60
2022-09-26T06:07:29.534Z,14.10
2022-09-26T06:08:29.523Z,14.60
2022-09-26T06:09:29.568Z,13.30
2022-09-26T06:10:29.529Z,15.10
2022-09-26T06:11:29.561Z,18.50
2022-09-26T06:12:29.490Z,15.70
2022-09-26T06:13:29.501Z,14.20
2022-09-26T06:14:29.501Z,12.00
2022-09-26T06:15:29.519Z,14.60
2022-09-26T06:16:29.601Z,14.50
2022-09-26T06:17:29.485Z,14.70
2022-09-26T06:18:29.529Z,12.50
2022-09-26T06:19:29.466Z,12.90
2022-09-26T06:20:29.498Z,13.70
2022-09-26T06:21:29.466Z,14.70
2022-09-26T06:22:29.494Z,12.50
2022-09-26T06:23:29.435Z,13.90
2022-09-26T06:24:29.438Z,14.10
2022-09-26T06:25:29.489Z,13.10
2022-09-26T06:26:29.441Z,12.70
2022-09-26T06:27:29.426Z,13.30
2022-09-26T06:28:29.409Z,14.10
2022-09-26T06:29:29.416Z,11.30
2022-09-26T06:30:29.423Z,14.70
2022-09-26T06:31:29.442Z,12.30
2022-09-26T06:32:30.497Z,14.80
2022-09-26T06:33:33.282Z,16.60
2022-09-26T06:34:30.413Z,15.20
2022-09-26T06:35:29.446Z,11.90
2022-09-26T06:36:29.365Z,10.70
2022-09-26T06:37:29.357Z,10.60
2022-09-26T06:38:29.353Z,11.40
2022-09-26T06:39:29.341Z,14.10
2022-09-26T06:40:29.399Z,11.40
2022-09-26T06:41:29.397Z,13.40
2022-09-26T06:42:29.332Z,14.40
2022-09-26T06:43:29.401Z,14.50
2022-09-26T06:44:29.316Z,14.10
2022-09-26T06:45:29.295Z,12.10
2022-09-26T06:46:29.392Z,14.10
2022-09-26T06:47:29.320Z,11.90
2022-09-26T06:48:29.271Z,15.90
2022-09-26T06:49:29.271Z,12.00
2022-09-26T06:50:29.273Z,14.30
2022-09-26T06:51:29.276Z,13.50
2022-09-26T06:52:29.336Z,13.30
2022-09-26T06:53:29.247Z,13.30
2022-09-26T06:54:29.243Z,13.80
2022-09-26T06:55:29.238Z,12.00
2022-09-26T06:56:29.269Z,14.00
2022-09-26T06:57:29.235Z,13.50
2022-09-26T06:58:29.215Z,14.30
2022-09-26T06:59:29.216Z,15.50
2022-09-26T07:00:29.234Z,15.50
2022-09-26T07:01:29.326Z,15.40
2022-09-26T07:02:29.219Z,14.90
2022-09-26T07:03:29.191Z,15.30
2022-09-26T07:04:29.175Z,15.40
2022-09-26T07:05:29.199Z,17.90
2022-09-26T07:06:29.163Z,17.00
2022-09-26T07:07:29.166Z,16.60
2022-09-26T07:08:57.307Z,18.60
2022-09-26T07:09:31.148Z,18.30
2022-09-26T07:10:29.155Z,17.80
2022-09-26T07:11:50.977Z,17.70
2022-09-26T07:12:31.140Z,15.10
2022-09-26T07:13:29.128Z,17.40
2022-09-26T07:14:29.100Z,19.00
2022-09-26T07:15:29.112Z,15.10
2022-09-26T07:16:29.231Z,17.40
2022-09-26T07:17:29.108Z,14.70
2022-09-26T07:18:29.083Z,17.50
2022-09-26T07:19:29.079Z,19.60
2022-09-26T07:21:01.031Z,15.90
2022-09-26T07:21:29.048Z,15.90
2022-09-26T07:22:29.075Z,17.10
2022-09-26T07:23:29.951Z,17.20
2022-09-26T07:24:30.039Z,19.10
2022-09-26T07:25:29.019Z,18.30
2022-09-26T07:26:29.021Z,17.20
2022-09-26T07:27:29.035Z,17.70
2022-09-26T07:28:29.035Z,19.60
2022-09-26T07:29:29.007Z,17.90
2022-09-26T07:30:29.015Z,16.90
2022-09-26T07:31:29.046Z,16.60
2022-09-26T07:32:28.979Z,18.00
2022-09-26T07:33:28.988Z,17.10
2022-09-26T07:34:28.979Z,17.70
2022-09-26T07:35:28.982Z,17.80
2022-09-26T07:36:28.955Z,17.30
2022-09-26T07:37:28.947Z,16.40
2022-09-26T07:38:28.957Z,19.70
2022-09-26T07:39:28.968Z,17.10
2022-09-26T07:40:28.968Z,17.00
2022-09-26T07:41:28.915Z,18.20
2022-09-26T07:42:28.932Z,18.50
2022-09-26T07:43:53.600Z,15.40
2022-09-26T07:45:09.665Z,20.50
2022-09-26T07:45:31.123Z,15.60
2022-09-26T07:46:29.916Z,15.00
2022-09-26T07:47:28.886Z,16.20
2022-09-26T07:48:28.880Z,16.40
2022-09-26T07:49:28.888Z,14.20
2022-09-26T07:50:28.874Z,18.70
2022-09-26T07:51:28.855Z,16.70
2022-09-26T07:52:28.843Z,15.30
2022-09-26T07:53:28.835Z,15.30
2022-09-26T07:54:28.858Z,16.20
2022-09-26T07:55:28.829Z,17.30
2022-09-26T07:56:28.870Z,14.60
2022-09-26T07:57:28.830Z,14.40
2022-09-26T07:58:28.810Z,16.60
2022-09-26T07:59:28.842Z,17.20
2022-09-26T08:00:28.806Z,17.10
2022-09-26T08:01:28.862Z,14.70
2022-09-26T08:02:29.594Z,14.80
2022-09-26T08:03:28.782Z,12.80
2022-09-26T08:04:28.845Z,15.80
2022-09-26T08:05:28.800Z,15.70
2022-09-26T08:06:28.767Z,12.60
2022-09-26T08:07:28.842Z,14.20
2022-09-26T08:08:28.760Z,12.00
2022-09-26T08:09:28.800Z,13.40
2022-09-26T08:10:28.766Z,12.90
2022-09-26T08:11:28.726Z,15.40
2022-09-26T08:12:28.721Z,15.20
2022-09-26T08:13:28.718Z,16.10
2022-09-26T08:14:28.714Z,14.90
2022-09-26T08:15:28.718Z,11.40
2022-09-26T08:16:28.772Z,15.50
2022-09-26T08:17:28.686Z,13.40
2022-09-26T08:18:28.701Z,16.30
2022-09-26T08:19:28.684Z,12.40
2022-09-26T08:20:32.156Z,13.90
2022-09-26T08:21:29.668Z,11.80
2022-09-26T08:22:28.659Z,13.40
2022-09-26T08:23:28.655Z,11.30
2022-09-26T08:24:28.642Z,11.90
2022-09-26T08:25:28.714Z,11.70
2022-09-26T08:26:28.626Z,13.10
2022-09-26T08:27:28.635Z,12.00
2022-09-26T08:28:28.622Z,12.40
2022-09-26T08:29:28.615Z,10.90
2022-09-26T08:30:28.647Z,11.90
2022-09-26T08:31:28.615Z,13.60
2022-09-26T08:32:28.602Z,12.30
2022-09-26T08:33:28.591Z,12.50
2022-09-26T08:34:28.591Z,11.50
2022-09-26T08:35:28.598Z,12.20
2022-09-26T08:36:28.560Z,13.40
2022-09-26T08:37:28.572Z,11.90
2022-09-26T08:38:28.554Z,11.70
2022-09-26T08:39:33.121Z,10.80
2022-09-26T08:40:29.625Z,11.00
2022-09-26T08:41:28.528Z,12.10
2022-09-26T08:42:28.568Z,10.00
2022-09-26T08:43:28.530Z,11.70
2022-09-26T08:44:29.490Z,11.80
2022-09-26T08:45:28.510Z,11.80
2022-09-26T08:46:28.579Z,12.30
2022-09-26T08:47:28.485Z,11.70
2022-09-26T08:48:28.508Z,13.40
2022-09-26T08:49:28.473Z,12.20
2022-09-26T08:50:28.497Z,9.60
2022-09-26T08:51:29.444Z,8.70
2022-09-26T08:52:29.482Z,9.50
2022-09-26T08:53:28.470Z,8.10
2022-09-26T08:54:28.444Z,10.70
2022-09-26T08:55:28.456Z,9.70
2022-09-26T08:56:28.443Z,10.50
2022-09-26T08:57:28.433Z,7.50
2022-09-26T08:58:29.090Z,8.30
2022-09-26T08:59:29.408Z,8.70
2022-09-26T09:00:28.440Z,7.70
2022-09-26T09:01:28.500Z,8.90
2022-09-26T09:02:28.495Z,7.50
2022-09-26T09:03:28.395Z,7.80
2022-09-26T09:04:28.472Z,6.10
2022-09-26T09:05:28.384Z,8.10
2022-09-26T09:06:28.390Z,8.10
2022-09-26T09:07:28.381Z,7.70
2022-09-26T09:08:28.364Z,7.40
2022-09-26T09:09:28.356Z,6.60
2022-09-26T09:10:28.348Z,7.40
2022-09-26T09:11:28.380Z,6.20
2022-09-26T09:12:32.111Z,8.20
2022-09-26T09:13:29.335Z,5.60
2022-09-26T09:14:28.327Z,9.60
2022-09-26T09:15:28.327Z,7.70
2022-09-26T09:16:28.550Z,5.90
2022-09-26T09:17:28.312Z,7.60
2022-09-26T09:18:28.303Z,8.40
2022-09-26T09:19:28.285Z,6.40
2022-09-26T09:20:28.307Z,8.00
2022-09-26T09:21:28.287Z,6.40
2022-09-26T09:22:28.281Z,7.00
2022-09-26T09:23:28.334Z,7.40
2022-09-26T09:24:28.279Z,5.40
2022-09-26T09:25:28.251Z,6.10
2022-09-26T09:28:30.256Z,6.90
2022-09-26T09:29:28.264Z,7.00
2022-09-26T09:30:28.220Z,5.20
2022-09-26T09:31:28.221Z,5.40
2022-09-26T09:32:28.243Z,3.90
2022-09-26T09:33:28.194Z,6.80
2022-09-26T09:34:28.205Z,6.20
2022-09-26T09:35:28.197Z,5.00
2022-09-26T09:36:28.197Z,4.50
2022-09-26T09:37:28.187Z,5.90
2022-09-26T09:38:28.192Z,6.80
2022-09-26T09:39:28.216Z,5.40
2022-09-26T09:40:28.237Z,3.70
2022-09-26T09:41:28.151Z,3.50
2022-09-26T09:42:28.142Z,4.80
2022-09-26T09:43:28.159Z,3.00
2022-09-26T09:44:28.162Z,3.70
2022-09-26T09:45:28.131Z,3.50
2022-09-26T09:46:28.166Z,6.80
2022-09-26T09:47:28.105Z,6.00
2022-09-26T09:48:28.123Z,4.30
2022-09-26T09:49:28.102Z,4.50
2022-09-26T09:50:28.108Z,4.60
2022-09-26T09:51:28.089Z,4.00
2022-09-26T09:52:28.102Z,3.10
2022-09-26T09:53:28.103Z,3.00
2022-09-26T09:54:28.079Z,5.30
2022-09-26T09:55:28.071Z,2.50
2022-09-26T09:56:28.058Z,3.20
2022-09-26T09:57:28.067Z,5.00
2022-09-26T09:58:28.047Z,4.50
2022-09-26T09:59:28.042Z,4.40
2022-09-26T10:00:28.042Z,3.10
2022-09-26T10:01:28.035Z,6.30
2022-09-26T10:02:28.048Z,3.70
2022-09-26T10:03:28.051Z,10.20
2022-09-26T10:04:28.030Z,4.20
2022-09-26T10:05:27.997Z,3.10
2022-09-26T10:06:45.245Z,3.80
2022-09-26T10:07:29.035Z,4.10
2022-09-26T10:08:27.985Z,5.00
2022-09-26T10:09:35.667Z,4.00
2022-09-26T10:10:28.970Z,5.60
2022-09-26T10:11:27.981Z,6.40
2022-09-26T10:12:28.024Z,4.70
2022-09-26T10:13:27.950Z,5.60
2022-09-26T10:14:27.933Z,5.70
2022-09-26T10:15:27.936Z,3.90
2022-09-26T10:16:28.034Z,3.60
2022-09-26T10:17:27.942Z,4.70
2022-09-26T10:18:27.935Z,5.90
2022-09-26T10:19:27.902Z,4.10
2022-09-26T10:20:27.898Z,2.60
2022-09-26T10:21:27.891Z,4.20
2022-09-26T10:22:27.899Z,3.60
2022-09-26T10:23:27.870Z,4.40
2022-09-26T10:24:27.886Z,5.50
2022-09-26T10:25:27.873Z,3.50
2022-09-26T10:26:31.453Z,2.50
2022-09-26T10:27:28.878Z,3.80
2022-09-26T10:28:27.874Z,4.60
2022-09-26T10:29:27.854Z,5.20
2022-09-26T10:30:27.880Z,3.80
2022-09-26T10:31:28.103Z,3.80
2022-09-26T10:32:27.848Z,3.10
2022-09-26T10:33:27.821Z,6.10
2022-09-26T10:34:27.838Z,3.80
2022-09-26T10:35:27.818Z,3.40
2022-09-26T10:36:27.803Z,4.00
2022-09-26T10:37:27.841Z,6.20
2022-09-26T10:38:27.801Z,3.60
2022-09-26T10:39:27.781Z,2.90
2022-09-26T10:40:27.780Z,3.90
2022-09-26T10:41:27.762Z,4.30
2022-09-26T10:42:32.167Z,6.50
2022-09-26T10:43:28.784Z,4.00
2022-09-26T10:44:27.818Z,5.60
2022-09-26T10:45:27.761Z,3.10
2022-09-26T10:46:27.811Z,3.40
2022-09-26T10:47:27.738Z,5.40
2022-09-26T10:48:27.722Z,3.70
2022-09-26T10:49:27.754Z,3.80
2022-09-26T10:50:27.724Z,4.20
2022-09-26T10:51:27.746Z,3.70
2022-09-26T10:52:27.709Z,3.80
2022-09-26T10:53:27.687Z,5.20
2022-09-26T10:54:27.686Z,3.70
2022-09-26T10:55:27.722Z,4.70
2022-09-26T10:56:27.687Z,3.50
2022-09-26T10:57:27.893Z,3.20
2022-09-26T10:58:27.653Z,2.20
2022-09-26T10:59:27.701Z,4.70
2022-09-26T11:00:27.650Z,4.80
2022-09-26T11:01:27.719Z,3.50
2022-09-26T11:02:27.645Z,4.90
2022-09-26T11:03:27.675Z,6.20
2022-09-26T11:04:27.657Z,7.10
2022-09-26T11:05:27.726Z,3.60
2022-09-26T11:06:27.610Z,3.30
2022-09-26T11:07:28.626Z,4.10
2022-09-26T11:08:27.606Z,3.10
2022-09-26T11:09:27.617Z,2.40
2022-09-26T11:10:27.738Z,3.10
2022-09-26T11:11:27.574Z,4.20
2022-09-26T11:12:27.568Z,3.00
2022-09-26T11:13:27.553Z,3.60
2022-09-26T11:14:28.536Z,6.80
2022-09-26T11:15:28.708Z,5.30
2022-09-26T11:16:27.597Z,2.10
2022-09-26T11:17:27.525Z,5.90
2022-09-26T11:18:27.534Z,5.40
2022-09-26T11:19:27.523Z,5.00
2022-09-26T11:20:27.545Z,3.90
2022-09-26T11:21:29.302Z,3.70
2022-09-26T11:22:28.506Z,4.80
2022-09-26T11:23:27.525Z,4.80
2022-09-26T11:24:27.505Z,5.00
2022-09-26T11:25:27.509Z,4.80
2022-09-26T11:26:27.486Z,3.50
2022-09-26T11:27:27.511Z,4.50
2022-09-26T11:28:27.467Z,3.00
2022-09-26T11:29:27.474Z,3.20
2022-09-26T11:30:27.458Z,3.30
2022-09-26T11:31:27.562Z,3.60
2022-09-26T11:32:27.491Z,4.40
2022-09-26T11:33:27.435Z,4.70
2022-09-26T11:34:27.485Z,3.90
2022-09-26T11:35:27.410Z,3.30
2022-09-26T11:36:27.404Z,4.80
2022-09-26T11:37:27.461Z,4.60
2022-09-26T11:38:27.429Z,3.50
2022-09-26T11:39:27.401Z,2.80
2022-09-26T11:40:27.484Z,4.00
2022-09-26T11:41:27.395Z,4.90
2022-09-26T11:42:27.412Z,2.90
2022-09-26T11:43:27.366Z,3.30
2022-09-26T11:44:27.388Z,3.60
2022-09-26T11:45:27.373Z,5.40
2022-09-26T11:46:27.441Z,3.40
2022-09-26T11:47:27.406Z,2.70
2022-09-26T11:48:27.364Z,3.40
2022-09-26T11:49:27.348Z,5.10
2022-09-26T11:50:27.356Z,3.50
2022-09-26T11:51:27.331Z,3.20
2022-09-26T11:52:27.315Z,4.00
2022-09-26T11:53:27.304Z,3.50
2022-09-26T11:54:27.319Z,3.00
2022-09-26T11:55:27.287Z,4.20
2022-09-26T11:56:27.363Z,3.30
2022-09-26T11:57:27.275Z,5.00
2022-09-26T11:58:27.295Z,3.30
2022-09-26T11:59:27.310Z,4.90
2022-09-26T12:00:27.298Z,5.20
2022-09-26T12:01:28.011Z,4.30
2022-09-26T12:02:27.316Z,4.00
2022-09-26T12:03:27.397Z,5.00
2022-09-26T12:04:27.236Z,1.90
2022-09-26T12:05:27.737Z,2.60
2022-09-26T12:06:28.230Z,2.20
2022-09-26T12:07:27.219Z,4.20
2022-09-26T12:08:27.222Z,6.20
2022-09-26T12:09:27.184Z,4.10
2022-09-26T12:10:27.217Z,5.30
2022-09-26T12:11:27.228Z,4.60
2022-09-26T12:12:27.177Z,3.90
2022-09-26T12:13:27.157Z,5.50
2022-09-26T12:14:28.184Z,2.10
2022-09-26T12:15:27.172Z,2.80
2022-09-26T12:16:27.186Z,4.40
2022-09-26T12:17:27.173Z,2.40
2022-09-26T12:18:27.196Z,3.40
2022-09-26T12:19:27.128Z,4.20
2022-09-26T12:20:27.133Z,2.80
2022-09-26T12:21:27.112Z,3.20
2022-09-26T12:22:27.135Z,3.80
2022-09-26T12:23:27.152Z,3.90
2022-09-26T12:24:27.084Z,3.30
2022-09-26T12:25:27.084Z,2.30
2022-09-26T12:26:27.080Z,2.20
2022-09-26T12:27:27.108Z,1.90
2022-09-26T12:28:29.453Z,3.50
2022-09-26T12:29:27.067Z,1.20
2022-09-26T12:30:27.048Z,2.40
2022-09-26T12:31:27.085Z,6.70
2022-09-26T12:32:27.056Z,3.40
2022-09-26T12:33:27.070Z,2.00
2022-09-26T12:34:27.025Z,1.80
2022-09-26T12:35:27.088Z,1.70
2022-09-26T12:36:27.013Z,3.00
2022-09-26T12:37:27.133Z,1.70
2022-09-26T12:38:27.025Z,2.90
2022-09-26T12:39:26.997Z,3.20
2022-09-26T12:40:28.042Z,4.00
2022-09-26T12:41:26.980Z,3.00
2022-09-26T12:42:26.959Z,2.60
2022-09-26T12:43:26.965Z,2.10
2022-09-26T12:44:26.960Z,3.70
2022-09-26T12:45:26.952Z,3.50
2022-09-26T12:46:26.981Z,1.80
2022-09-26T12:47:26.959Z,4.80
2022-09-26T12:48:26.926Z,3.10
2022-09-26T12:49:26.948Z,3.00
2022-09-26T12:50:26.941Z,1.50
2022-09-26T12:51:26.921Z,2.90
2022-09-26T12:52:27.590Z,4.10
2022-09-26T12:53:27.915Z,4.60
2022-09-26T12:54:26.910Z,4.60
2022-09-26T12:55:26.898Z,4.60
2022-09-26T12:56:26.901Z,4.30
2022-09-26T12:57:26.886Z,2.60
2022-09-26T12:58:26.870Z,2.20
2022-09-26T12:59:26.887Z,1.90
2022-09-26T13:00:26.883Z,3.20
2022-09-26T13:01:26.870Z,2.50
2022-09-26T13:02:26.890Z,1.90
2022-09-26T13:03:26.865Z,4.20
2022-09-26T13:04:26.811Z,2.20
2022-09-26T13:05:26.826Z,2.10
2022-09-26T13:06:26.800Z,2.50
2022-09-26T13:07:26.785Z,5.10
2022-09-26T13:08:26.794Z,3.00
2022-09-26T13:09:26.782Z,3.50
2022-09-26T13:10:26.941Z,4.90
2022-09-26T13:11:31.687Z,2.30
2022-09-26T13:12:28.818Z,2.70